• Join FlightAware (Why Join?)
  • Login
  • US Flag 
06:58AM EST


 

Airport Tracker/Info


-or-


 

Live Flight TrackerFlight Track Log ✈ UAL139 ✈ 21-Jun-2013 ✈ KDEN - RJAA / NRT

Flight Track Log - Related Links

Times and Time Zones

All times are in EDT time to prevent confusion due to time zone crossing. See the UAL139 flight status page for this flight to view local times or setup timezone preferences in your user account.

Time Position Orientation Groundspeed Altitude Reporting Facility
EDT Latitude Longitude Course Direction KTS MPH feet Rate Location/Type
02:36PM 39.8570 -104.6760 295° West 11 13  Level FlightAware
02:37PM 39.8570 -104.6770 270° West 20 23 480 Level FlightAware
02:41PM 39.8620 -104.6920 294° West 25 29 540 Level FlightAware
02:42PM 39.8650 -104.6940 333° Northwest 28 32 1,020 Level FlightAware
02:42PM 39.8670 -104.6940 360° North 29 33 1,140 Level FlightAware
02:42PM 39.8710 -104.6940 360° North 31 36 1,200 Level FlightAware
02:43PM 39.8750 -104.6940 360° North 33 38 1,320 Level FlightAware
02:46PM 39.8792 -104.6960 180° South 154 177 5,400 1,440 Climbing FlightAware ADS-B
02:47PM 39.8667 -104.6960 180° South 160 184 5,300 600 Descending FlightAware ADS-B
02:47PM 39.8529 -104.6970 183° South 208 239 5,700 1,980 Climbing FlightAware ADS-B
02:47PM 39.8371 -104.6970 180° South 213 245 6,300 2,280 Climbing FlightAware ADS-B
02:47PM 39.8323 -104.6980 189° South 211 243 6,500 2,460 Climbing FlightAware ADS-B
02:47PM 39.8262 -104.7010 201° Southwest 211 243 6,800 2,160 Climbing FlightAware ADS-B
02:47PM 39.8229 -104.7040 215° Southwest 215 247 6,900 720 Climbing FlightAware ADS-B
02:47PM 39.8199 -104.7070 218° Southwest 220 253 6,900  Level FlightAware ADS-B
02:47PM 39.8158 -104.7130 228° Southwest 223 257 6,900 660 Level FlightAware ADS-B
02:48PM 39.8138 -104.7170 237° Southwest 231 266 7,000 960 Climbing FlightAware ADS-B
02:48PM 39.8126 -104.7210 249° West 236 272 7,000  Level FlightAware ADS-B
02:48PM 39.8114 -104.7300 260° West 245 282 7,000 480 Level FlightAware ADS-B
02:48PM 39.8118 -104.7380 274° West 248 285 7,100 1,320 Climbing FlightAware ADS-B
02:48PM 39.8126 -104.7430 282° West 251 289 7,200 1,500 Climbing FlightAware ADS-B
02:48PM 39.8146 -104.7500 290° West 256 295 7,300 1,500 Climbing FlightAware ADS-B
02:48PM 39.8165 -104.7540 302° West 260 299 7,400 1,200 Climbing FlightAware ADS-B
02:48PM 39.8214 -104.7620 309° West 268 308 7,500 1,200 Climbing FlightAware ADS-B
02:48PM 39.8363 -104.7850 310° West 286 329 7,900 1,620 Climbing FlightAware ADS-B
02:49PM 39.8468 -104.8010 311° West 290 334 8,300 2,340 Climbing FlightAware ADS-B
02:49PM 39.8649 -104.8290 310° West 291 335 9,200 2,400 Climbing FlightAware ADS-B
02:49PM 39.8809 -104.8550 309° West 296 341 9,900 1,680 Climbing FlightAware ADS-B
02:50PM 39.9010 -104.8870 309° West 303 349 10,400 1,260 Climbing FlightAware ADS-B
02:50PM 39.9061 -104.8940 314° West 304 350 10,500 1,200 Climbing FlightAware ADS-B
02:50PM 39.9163 -104.9070 316° Northwest 313 360 10,700 1,200 Climbing FlightAware ADS-B
02:50PM 39.9277 -104.9180 324° Northwest 324 373 10,900 1,200 Climbing FlightAware ADS-B
02:50PM 39.9541 -104.9370 331° Northwest 343 395 11,300 1,260 Climbing FlightAware ADS-B
02:50PM 39.9603 -104.9410 334° Northwest 347 399 11,400 1,200 Climbing FlightAware ADS-B
02:50PM 39.9696 -104.9450 342° North 352 405 11,500 1,200 Climbing FlightAware ADS-B
02:51PM 39.9843 -104.9480 351° North 359 413 11,700 1,800 Climbing FlightAware ADS-B
02:51PM 40.0024 -104.9480 360° North 363 418 12,100 2,400 Climbing FlightAware ADS-B
02:51PM 40.0506 -104.9450 North 368 423 13,300 2,400 Climbing FlightAware ADS-B
02:52PM 40.0729 -104.9400 10° North 371 427 13,800 2,100 Climbing FlightAware ADS-B
02:52PM 40.0847 -104.9350 18° North 375 432 14,000 2,400 Climbing FlightAware ADS-B
02:52PM 40.0975 -104.9270 26° Northeast 377 434 14,400 2,400 Climbing FlightAware ADS-B
02:52PM 40.1149 -104.9110 35° Northeast 381 438 14,800 1,860 Climbing FlightAware ADS-B
02:53PM 40.1616 -104.8640 38° Northeast 393 452 15,800 1,920 Climbing FlightAware ADS-B
02:53PM 40.1917 -104.8400 31° Northeast 398 458 16,500 2,160 Climbing FlightAware ADS-B
02:53PM 40.2100 -104.8310 21° North 398 458 16,900 1,860 Climbing FlightAware ADS-B
02:53PM 40.2236 -104.8270 13° North 398 458 17,100 1,800 Climbing FlightAware ADS-B
02:53PM 40.2565 -104.8270 360° North 396 456 17,700 2,040 Climbing FlightAware ADS-B
02:54PM 40.3138 -104.8470 345° North 398 458 18,800 1,920 Climbing FlightAware ADS-B
02:55PM 40.3792 -104.8720 344° North 410 472 19,900 1,680 Climbing FlightAware ADS-B
02:55PM 40.4386 -104.8940 344° North 418 481 20,800 1,680 Climbing FlightAware ADS-B
02:56PM 40.4962 -104.9160 344° North 425 489 21,700 1,860 Climbing FlightAware ADS-B
02:56PM 40.5538 -104.9380 344° North 432 497 22,700 1,860 Climbing FlightAware ADS-B
02:57PM 40.6128 -104.9590 345° North 440 506 23,600 1,680 Climbing FlightAware ADS-B
02:57PM 40.6634 -104.9790 343° North 442 509 24,300 1,680 Climbing FlightAware ADS-B
02:57PM 40.6812 -104.9890 337° Northwest 443 510 24,600 1,740 Climbing FlightAware ADS-B
02:58PM 40.7243 -105.0240 328° Northwest 441 507 25,300 1,500 Climbing FlightAware ADS-B
02:58PM 40.7725 -105.0770 320° Northwest 447 514 26,000 1,320 Climbing FlightAware ADS-B
02:59PM 40.8231 -105.1330 320° Northwest 452 520 26,700 1,500 Climbing FlightAware ADS-B
02:59PM 40.8920 -105.2120 319° Northwest 454 522 27,900 1,560 Climbing FlightAware ADS-B
03:00PM 40.9568 -105.2850 320° Northwest 454 522 28,900 1,500 Climbing FlightAware ADS-B
03:01PM 41.0280 -105.3660 319° Northwest 464 534 30,000 1,380 Climbing FlightAware
03:02PM 41.0970 -105.4450 319° Northwest 469 540 30,900 1,140 Climbing FlightAware
03:02PM 41.1560 -105.5120 319° Northwest 475 547 31,500 960 Climbing FlightAware
03:03PM 41.2400 -105.6080 319° Northwest 484 557 32,300 900 Climbing FlightAware
03:04PM 41.3060 -105.6840 319° Northwest 489 563 32,900 900 Climbing FlightAware
03:04PM 41.3770 -105.7820 314° West 490 564 33,600 900 Climbing FlightAware
03:05PM 41.4300 -105.8650 310° West 493 567 34,200 1,080 Climbing FlightAware
03:06PM 41.4950 -105.9670 310° West 491 565 35,100 1,020 Climbing FlightAware
03:06PM 41.5600 -106.0700 310° West 491 565 35,800 660 Climbing FlightAware
03:07PM 41.6240 -106.1700 311° West 494 568 36,100 540 Climbing FlightAware
03:08PM 41.6830 -106.2650 310° West 494 568 36,600 840 Climbing FlightAware
03:09PM 41.7490 -106.3680 311° West 488 562 37,300 840 Climbing FlightAware
03:10PM 41.8280 -106.4950 310° West 482 555 38,000 420 Climbing FlightAware
03:10PM 41.8740 -106.5680 310° West 480 552 38,000  Level FlightAware
03:11PM 41.9070 -106.6230 309° West 480 552 38,000  Level FlightAware
03:11PM 41.9570 -106.7060 309° West 480 552 38,000  Level FlightAware
03:12PM 42.0010 -106.7790 309° West 480 552 38,000  Level FlightAware
03:13PM 42.0590 -106.8760 309° West 480 552 38,000  Level FlightAware
03:13PM 42.1010 -106.9450 309° West 480 552 38,000  Level FlightAware
03:14PM 42.1580 -107.0400 309° West 480 552 38,000  Level FlightAware
03:15PM 42.2070 -107.1230 309° West 480 552 38,000  Level FlightAware
03:15PM 42.2570 -107.2060 309° West 480 552 38,000  Level FlightAware
03:17PM 42.3440 -107.3510 309° West 480 552 38,000  Level FlightAware
03:17PM 42.3880 -107.4250 309° West 480 552 38,000  Level FlightAware
03:18PM 42.4440 -107.5180 309° West 480 552 38,000  Level FlightAware
03:19PM 42.4900 -107.5960 309° West 480 552 38,000  Level FlightAware
03:19PM 42.5330 -107.6670 309° West 480 552 38,000  Level FlightAware
03:21PM 42.7600 -108.0247 309° West 473 544 38,000  Level Salt Lake Center
03:22PM 42.8381 -108.1558 309° West 469 540 38,000  Level Salt Lake Center
03:23PM 42.9297 -108.3122 309° West 473 544 38,000  Level Salt Lake Center
03:24PM 43.0092 -108.4467 309° West 475 547 38,000  Level Salt Lake Center
03:25PM 43.1014 -108.6053 309° West 478 550 38,000  Level Salt Lake Center
03:26PM 43.1803 -108.7425 308° West 479 551 38,000  Level Salt Lake Center
03:27PM 43.2722 -108.9014 309° West 478 550 38,000  Level Salt Lake Center
03:28PM 43.3514 -109.0381 309° West 479 551 38,000  Level Salt Lake Center
03:29PM 43.4433 -109.1986 308° West 480 552 38,000  Level Salt Lake Center
03:30PM 43.5242 -109.3414 308° West 478 550 38,000  Level Salt Lake Center
03:31PM 43.6019 -109.4775 308° West 474 545 38,000  Level Salt Lake Center
03:32PM 43.6906 -109.6367 308° West 470 541 38,000  Level Salt Lake Center
03:33PM 43.7675 -109.7728 308° West 470 541 38,000  Level Salt Lake Center
03:34PM 43.8583 -109.9331 308° West 473 544 38,000  Level Salt Lake Center
03:35PM 43.9350 -110.0719 308° West 474 545 38,000  Level Salt Lake Center
03:36PM 44.0247 -110.2369 307° West 480 552 38,000  Level Salt Lake Center
03:37PM 44.1033 -110.3783 308° West 483 556 38,000  Level Salt Lake Center
03:38PM 44.1958 -110.5469 307° West 490 564 38,000  Level Salt Lake Center
03:39PM 44.2736 -110.6908 307° West 487 560 38,000  Level Salt Lake Center
03:40PM 44.3642 -110.8583 307° West 485 558 38,000  Level Salt Lake Center
03:41PM 44.4411 -111.0014 307° West 483 556 38,000  Level Salt Lake Center
03:42PM 44.5311 -111.1686 307° West 484 557 38,000  Level Salt Lake Center
03:43PM 44.6081 -111.3117 307° West 486 559 38,000  Level Salt Lake Center
03:44PM 44.6944 -111.4783 306° West 486 559 38,000  Level Salt Lake Center
03:45PM 44.7708 -111.6228 307° West 486 559 38,000  Level Salt Lake Center
03:46PM 44.8603 -111.7939 306° West 488 562 38,000  Level Salt Lake Center
03:47PM 44.9375 -111.9431 306° West 492 566 38,000  Level Salt Lake Center
03:48PM 45.0281 -112.1161 307° West 492 566 38,000  Level Salt Lake Center
03:49PM 45.1042 -112.2656 306° West 491 565 38,000  Level Salt Lake Center
03:51PM 45.1933 -112.4392 306° West 488 562 38,000  Level Salt Lake Center
03:52PM 45.2700 -112.5897 306° West 492 566 38,000  Level Salt Lake Center
03:53PM 45.3583 -112.7681 305° West 493 567 38,000  Level Salt Lake Center
03:54PM 45.4281 -112.9114 305° West 495 570 38,000  Level Salt Lake Center
03:55PM 45.5081 -113.0728 305° West 497 572 38,000  Level Salt Lake Center
03:56PM 45.5875 -113.2350 305° West 499 574 38,000  Level Salt Lake Center
03:57PM 45.6806 -113.4292 304° West 493 567 38,000  Level Salt Lake Center
03:58PM 45.7586 -113.5906 305° West 493 567 38,000  Level Salt Lake Center
03:59PM 45.8406 -113.7597 305° West 497 572 38,000  Level Salt Lake Center
04:00PM 45.9186 -113.9236 304° West 498 573 38,000 -60 Level Salt Lake Center
04:01PM 45.9969 -114.0867 305° West 497 572 37,900  Descending Salt Lake Center
04:02PM 46.0731 -114.2519 304° West 496 571 38,000  Climbing Salt Lake Center
04:03PM 46.1511 -114.4167 304° West 498 573 37,900  Descending Salt Lake Center
04:04PM 46.2278 -114.5833 304° West 499 574 38,000  Climbing Salt Lake Center
04:05PM 46.3194 -114.7806 304° West 495 570 38,000  Level Salt Lake Center
04:06PM 46.3947 -114.9456 304° West 493 567 38,000  Level Salt Lake Center
04:07PM 46.4708 -115.1094 304° West 492 566 38,000 -60 Level Salt Lake Center
04:08PM 46.5467 -115.2794 303° West 491 565 37,900 -60 Descending Salt Lake Center
04:09PM 46.6375 -115.4822 303° West 498 573 37,900  Level Seattle Center
04:10PM 46.7125 -115.6483 303° West 495 570 37,900  Level Seattle Center
04:11PM 46.7878 -115.8156 303° West 494 568 37,900  Level Seattle Center
04:12PM 46.8608 -115.9819 303° West 490 564 37,900  Level Seattle Center
04:13PM 46.9328 -116.1478 302° West 486 559 38,000  Climbing Seattle Center
04:14PM 47.0056 -116.3131 303° West 485 558 37,900 -60 Descending Seattle Center
04:15PM 47.0775 -116.4811 302° West 486 559 37,900  Level Seattle Center
04:16PM 47.1644 -116.6817 303° West 485 558 37,900  Level Seattle Center
04:17PM 47.2367 -116.8503 302° West 487 560 38,000  Climbing Seattle Center
04:18PM 47.3097 -117.0206 302° West 488 562 37,900  Descending Seattle Center
04:19PM 47.3822 -117.1925 302° West 487 560 38,000  Climbing Seattle Center
04:20PM 47.4547 -117.3647 302° West 485 558 37,900  Descending Seattle Center
04:26PM 47.8670 -118.3770 302° West 485 558 38,000  Climbing FlightAware
04:27PM 47.9150 -118.4990 300° West 485 558 38,000  Level FlightAware
04:28PM 47.9600 -118.6140 300° West 488 562 38,000  Level FlightAware
04:28PM 48.0020 -118.7220 300° West 489 563 38,000  Level FlightAware
04:29PM 48.0529 -118.8510 301° West 488 562 38,000  Level FlightAware ADS-B
04:30PM 48.0917 -118.9510 300° West 487 560 38,000  Level FlightAware ADS-B
04:30PM 48.1261 -119.0400 300° West 487 560 38,000  Level FlightAware ADS-B
04:31PM 48.1602 -119.1280 300° West 487 560 38,000  Level FlightAware ADS-B
04:31PM 48.1941 -119.2170 300° West 485 558 38,000  Level FlightAware ADS-B
04:32PM 48.2277 -119.3040 300° West 484 557 38,000  Level FlightAware ADS-B
04:32PM 48.2614 -119.3930 300° West 484 557 38,000  Level FlightAware ADS-B
04:33PM 48.2947 -119.4800 300° West 485 558 38,000  Level FlightAware ADS-B
04:33PM 48.3289 -119.5700 300° West 485 558 38,000  Level FlightAware ADS-B
04:34PM 48.3662 -119.6680 300° West 484 557 38,000  Level FlightAware ADS-B
04:34PM 48.3995 -119.7570 299° West 481 554 38,000  Level FlightAware ADS-B
04:35PM 48.4326 -119.8450 300° West 481 554 38,000  Level FlightAware ADS-B
04:35PM 48.4653 -119.9320 300° West 480 552 38,000  Level FlightAware ADS-B
04:36PM 48.4986 -120.0220 299° West 478 550 38,000  Level FlightAware ADS-B
04:36PM 48.5317 -120.1110 299° West 480 552 38,000  Level FlightAware ADS-B
04:37PM 48.5647 -120.1990 300° West 481 554 38,000  Level FlightAware ADS-B
04:37PM 48.6074 -120.3150 299° West 480 552 38,000  Level FlightAware ADS-B
04:38PM 48.6402 -120.4050 299° West 480 552 38,000  Level FlightAware ADS-B
04:39PM 48.6735 -120.4950 299° West 483 556 38,000  Level FlightAware ADS-B
04:39PM 48.7059 -120.5840 299° West 483 556 38,000  Level FlightAware ADS-B
04:40PM 48.7385 -120.6730 299° West 481 554 38,000  Level FlightAware ADS-B
04:40PM 48.7709 -120.7630 299° West 482 555 38,000  Level FlightAware ADS-B
04:41PM 48.8036 -120.8540 299° West 485 558 38,000  Level FlightAware ADS-B
04:41PM 48.8364 -120.9450 299° West 487 560 38,000  Level FlightAware ADS-B
04:42PM 48.8725 -121.0390 300° West 485 558 38,000  Level FlightAware ADS-B
04:42PM 48.9205 -121.1620 301° West 481 554 38,000  Level FlightAware ADS-B
04:43PM 48.9581 -121.2590 301° West 477 549 38,000  Level FlightAware ADS-B
04:43PM 48.9923 -121.3490 300° West 478 550 38,000  Level FlightAware ADS-B
04:44PM 49.0261 -121.4380 300° West 479 551 38,000  Level FlightAware ADS-B
04:44PM 49.0591 -121.5250 300° West 476 548 38,000  Level FlightAware ADS-B
04:45PM 49.0923 -121.6130 300° West 474 545 38,000  Level FlightAware ADS-B
04:45PM 49.1249 -121.7000 300° West 475 547 38,000  Level FlightAware ADS-B
04:46PM 49.1582 -121.7890 300° West 474 545 38,000  Level FlightAware ADS-B
04:46PM 49.1934 -121.8830 300° West 472 543 38,000  Level FlightAware ADS-B
04:47PM 49.2265 -121.9720 300° West 471 542 38,000  Level FlightAware ADS-B
04:47PM 49.2590 -122.0590 300° West 472 543 38,000  Level FlightAware ADS-B
04:48PM 49.2915 -122.1470 300° West 473 544 38,000  Level FlightAware ADS-B
04:48PM 49.3248 -122.2370 300° West 473 544 38,000  Level FlightAware ADS-B
04:49PM 49.3600 -122.3330 299° West 473 544 38,000  Level FlightAware ADS-B
04:50PM 49.3922 -122.4210 299° West 471 542 38,000  Level FlightAware ADS-B
04:50PM 49.4482 -122.5740 299° West 472 543 38,000  Level FlightAware ADS-B
04:51PM 49.4883 -122.6850 299° West 472 543 38,000  Level FlightAware ADS-B
04:52PM 49.5202 -122.7730 299° West 473 544 38,000  Level FlightAware ADS-B
04:52PM 49.5528 -122.8640 299° West 474 545 38,000  Level FlightAware ADS-B
04:53PM 49.5848 -122.9530 299° West 475 547 38,000  Level FlightAware ADS-B
04:53PM 49.6164 -123.0410 299° West 478 550 38,000  Level FlightAware ADS-B
04:54PM 49.6566 -123.1540 299° West 479 551 38,000  Level FlightAware ADS-B
04:55PM 49.7140 -123.3160 299° West 484 557 38,000  Level FlightAware
04:55PM 49.7630 -123.4540 299° West 483 556 38,000  Level FlightAware
04:56PM 49.8030 -123.5700 298° West 484 557 38,000  Level FlightAware
04:57PM 49.8510 -123.7070 299° West 484 557 38,000  Level FlightAware
04:57PM 49.8890 -123.8150 299° West 485 558 38,000  Level FlightAware
04:58PM 49.9390 -123.9600 298° West 486 559 38,000  Level FlightAware
04:59PM 49.9830 -124.0890 298° West 489 563 38,000  Level FlightAware
05:00PM 50.0290 -124.2250 298° West 492 566 38,000  Level FlightAware
05:00PM 50.0483 -124.2800 299° West 489 563 38,000  Level FlightAware ADS-B
05:00PM 50.0826 -124.3810 298° West 494 568 38,000  Level FlightAware ADS-B
05:01PM 50.1270 -124.5130 298° West 496 571 38,000  Level FlightAware
05:02PM 50.1760 -124.6590 298° West 500 575 38,000  Level FlightAware
05:03PM 50.2260 -124.7940 300° West 498 573 38,000  Level FlightAware
05:03PM 50.2770 -124.9180 303° West 499 574 38,000  Level FlightAware
05:04PM 50.3270 -125.0380 303° West 500 575 38,000  Level FlightAware
05:05PM 50.3830 -125.1750 303° West 502 578 38,000  Level FlightAware
05:05PM 50.4330 -125.2960 303° West 502 578 38,000  Level FlightAware
05:06PM 50.4780 -125.4080 302° West 501 577 38,000  Level FlightAware
05:07PM 50.5360 -125.5500 303° West 499 574 38,000  Level FlightAware
05:07PM 50.5830 -125.6650 303° West 504 580 38,000  Level FlightAware
05:08PM 50.6400 -125.8070 302° West 506 582 38,000  Level FlightAware
05:09PM 50.6910 -125.9350 302° West 506 582 38,000  Level FlightAware
05:10PM 50.7550 -126.0950 302° West 507 583 38,000  Level FlightAware
05:10PM 50.8180 -126.2540 302° West 508 585 38,000  Level FlightAware
05:11PM 50.8740 -126.3980 302° West 508 585 38,000  Level FlightAware
05:12PM 50.9150 -126.5000 303° West 508 585 38,000  Level FlightAware
05:13PM 50.9700 -126.6400 302° West 508 585 38,000  Level FlightAware
05:14PM 51.0210 -126.7720 302° West 508 585 38,000  Level FlightAware
05:14PM 51.0620 -126.8740 303° West 508 585 38,000  Level FlightAware
05:16PM 51.1480 -127.0960 302° West 508 585 38,000  Level FlightAware
05:17PM 51.2000 -127.2280 302° West 508 585 38,000  Level FlightAware
05:17PM 51.2400 -127.3310 302° West 508 585 38,000  Level FlightAware
05:18PM 51.2820 -127.4360 303° West 508 585 38,000  Level FlightAware
05:19PM 51.3330 -127.5670 302° West 508 585 38,000  Level FlightAware
05:19PM 51.3710 -127.6640 302° West 508 585 38,000  Level FlightAware
05:20PM 51.4120 -127.7700 302° West 508 585 38,000  Level FlightAware
05:21PM 51.4630 -127.9010 302° West 508 585 38,000  Level FlightAware
05:21PM 51.5667 -128.2833 300° West 500 575 38,000  Level Vancouver Center
05:22PM 51.6333 -128.4833 298° West 500 575 38,000  Level Vancouver Center
05:23PM 51.7167 -128.6833 304° West 500 575 38,000  Level Vancouver Center
05:24PM 51.7667 -128.8667 294° West 500 575 38,000  Level Vancouver Center
05:25PM 51.8500 -129.0667 304° West 500 575 38,000  Level Vancouver Center
05:26PM 51.9167 -129.2667 298° West 500 575 38,000  Level Vancouver Center
05:27PM 51.8446 -128.9680 300° West  Level FlightAware Approximate
05:27PM 52.0000 -129.4667 304° West 500 575 38,000  Level Vancouver Center
05:28PM 52.0500 -129.6667 292° West 500 575 38,000  Level Vancouver Center
05:29PM 52.1167 -129.8667 299° West 500 575 38,000  Level Vancouver Center
05:30PM 52.2000 -130.0667 304° West 510 587 38,000  Level Vancouver Center
05:31PM 52.2667 -130.2667 299° West 510 587 38,000  Level Vancouver Center
05:32PM 52.3333 -130.4667 299° West 510 587 38,000  Level Vancouver Center
05:33PM 52.4000 -130.6667 299° West 510 587 38,000  Level Vancouver Center
05:34PM 52.4667 -130.8833 297° West 510 587 38,000  Level Vancouver Center
05:35PM 52.5167 -131.0833 292° West 520 598 38,000  Level Vancouver Center
05:37PM 52.6833 -131.4833 305° West 510 587 38,000  Level Anchorage Center
05:38PM 52.7333 -131.7167 290° West 510 587 38,000  Level Vancouver Center
05:39PM 52.7833 -131.9167 293° West 520 598 38,000  Level Vancouver Center
05:40PM 52.8500 -132.1333 297° West 520 598 38,000  Level Vancouver Center
05:41PM 52.9333 -132.3333 305° West 520 598 38,000  Level Vancouver Center
05:42PM 53.0000 -132.5500 297° West 520 598 38,000  Level Vancouver Center
05:43PM 53.0667 -132.7833 296° West 520 598 38,000  Level Vancouver Center
05:44PM 53.1167 -132.9833 293° West 520 598 38,000  Level Vancouver Center
05:45PM 53.1833 -133.2000 297° West 520 598 38,000  Level Vancouver Center
05:46PM 53.2500 -133.4167 297° West 520 598 38,000  Level Vancouver Center
05:47PM 53.3167 -133.6500 296° West 520 598 38,000  Level Vancouver Center
05:48PM 53.3833 -133.8667 297° West 530 610 38,000  Level Vancouver Center
05:49PM 53.4500 -134.0833 297° West 530 610 38,000  Level Vancouver Center
05:50PM 53.5167 -134.3167 296° West 530 610 38,000  Level Vancouver Center
05:51PM 53.5833 -134.5167 299° West 530 610 38,000  Level Anchorage Center
05:52PM 53.6333 -134.7500 290° West 530 610 38,000  Level Vancouver Center
05:53PM 53.7167 -134.9667 303° West 530 610 38,000  Level Anchorage Center
05:54PM 53.7667 -135.2000 290° West 530 610 38,000  Level Vancouver Center
05:55PM 53.8167 -135.4167 291° West 530 610 38,000  Level Vancouver Center
05:56PM 53.8667 -135.6667 289° West 540 621 38,000  Level Vancouver Center
05:57PM 53.9333 -135.8833 298° West 540 621 38,000  Level Vancouver Center
05:58PM 54.0000 -136.1000 298° West 540 621 38,000  Level Vancouver Center
05:59PM 54.0667 -136.3500 295° West 530 610 38,000  Level Vancouver Center
06:00PM 54.1333 -136.5667 298° West 530 610 38,000  Level Vancouver Center
06:01PM 54.2167 -136.7667 306° West 530 610 38,000  Level Vancouver Center
06:02PM 54.2833 -137.0000 296° West 520 598 38,000  Level Vancouver Center
06:03PM 54.3500 -137.1667 305° West 510 587 38,000  Level Vancouver Center
06:04PM 54.4000 -137.3833 292° West 510 587 38,000  Level Vancouver Center
06:05PM 54.4833 -137.6167 302° West 520 598 38,000  Level Vancouver Center
06:06PM 54.5333 -137.8333 292° West 520 598 38,000  Level Vancouver Center
06:07PM 54.6000 -138.0667 296° West 520 598 38,000  Level Vancouver Center
06:08PM 54.6667 -138.2667 300° West 510 587 38,000  Level Vancouver Center
06:09PM 54.7333 -138.4833 298° West 510 587 38,000  Level Vancouver Center
06:10PM 54.8000 -138.7167 296° West 510 587 38,000  Level Vancouver Center
06:11PM 54.8667 -138.9167 300° West 520 598 38,000  Level Vancouver Center
06:12PM 54.9167 -139.1500 291° West 520 598 38,000  Level Vancouver Center
06:13PM 54.9833 -139.3667 298° West 510 587 38,000  Level Vancouver Center
06:14PM 55.0500 -139.6167 295° West 510 587 38,000  Level Vancouver Center
06:15PM 55.1167 -139.8167 300° West 510 587 38,000  Level Vancouver Center
06:16PM 55.1667 -140.0333 292° West 510 587 38,000  Level Vancouver Center
06:17PM 55.2167 -140.2500 292° West 500 575 38,000  Level Vancouver Center
06:19PM 55.3167 -140.4833 307° West 500 575 38,000  Level Anchorage Center
06:20PM 55.3833 -140.7167 297° West 490 564 38,000  Level Anchorage Center
06:21PM 55.4333 -140.9333 292° West 490 564 38,000  Level Anchorage Center
06:22PM 55.4833 -141.1500 292° West 490 564 38,000  Level Anchorage Center
06:23PM 55.5500 -141.3667 299° West 490 564 38,000  Level Anchorage Center
06:24PM 55.6167 -141.6000 297° West 490 564 38,000  Level Anchorage Center
06:25PM 55.6667 -141.8167 292° West 490 564 38,000  Level Anchorage Center
06:26PM 55.7167 -142.0333 292° West 500 575 38,000  Level Anchorage Center
06:27PM 55.7833 -142.2667 297° West 490 564 38,000  Level Anchorage Center
06:28PM 55.8333 -142.4833 292° West 490 564 38,000  Level Anchorage Center
06:29PM 55.8833 -142.7000 292° West 480 552 38,000  Level Anchorage Center
06:30PM 55.9333 -142.9333 291° West 480 552 38,000  Level Anchorage Center
06:31PM 56.0000 -143.1833 296° West 490 564 38,000  Level Anchorage Center
06:32PM 56.0500 -143.4000 293° West 490 564 38,000  Level Anchorage Center
06:33PM 56.1000 -143.6167 293° West 470 541 38,000  Level Anchorage Center
06:34PM 56.1500 -143.8500 291° West 490 564 38,000  Level Anchorage Center
06:35PM 56.2000 -144.0833 291° West 490 564 38,000  Level Anchorage Center
06:36PM 56.2500 -144.3000 293° West 490 564 38,000  Level Anchorage Center
06:37PM 56.3000 -144.5333 291° West 480 552 38,000  Level Anchorage Center
06:38PM 56.3500 -144.7500 293° West 470 541 38,000  Level Anchorage Center
06:39PM 56.4000 -144.9833 291° West 500 575 38,000  Level Anchorage Center
06:40PM 56.4500 -145.2167 291° West 490 564 38,000  Level Anchorage Center
06:41PM 56.4833 -145.4000 288° West 480 552 38,000  Level Anchorage Center
06:42PM 56.5500 -145.6667 294° West 480 552 38,000  Level Anchorage Center
06:43PM 56.6000 -145.9000 291° West 480 552 38,000  Level Anchorage Center
06:44PM 56.6500 -146.1167 293° West 470 541 38,000  Level Anchorage Center
06:45PM 56.6833 -146.3500 285° West 480 552 38,000  Level Anchorage Center
06:46PM 56.7333 -146.5833 291° West 480 552 38,000  Level Anchorage Center
06:47PM 56.7833 -146.8167 291° West 480 552 38,000  Level Anchorage Center
06:48PM 56.8333 -147.0333 293° West 470 541 38,000  Level Anchorage Center
06:49PM 56.8667 -147.2667 285° West 470 541 38,000  Level Anchorage Center
06:50PM 56.9167 -147.5000 292° West 470 541 38,000  Level Anchorage Center
06:51PM 56.9667 -147.7333 292° West 470 541 38,000  Level Anchorage Center
06:52PM 57.0000 -147.9667 285° West 470 541 38,000  Level Anchorage Center
06:53PM 57.0500 -148.1833 293° West 470 541 38,000 120 Level Anchorage Center
06:54PM 57.0833 -148.4167 285° West 480 552 38,300 540 Climbing Anchorage Center
06:55PM 57.1333 -148.6500 292° West 470 541 39,100 600 Climbing Anchorage Center
06:56PM 57.1833 -148.8833 292° West 470 541 39,500 420 Climbing Anchorage Center
06:57PM 57.2167 -149.1167 285° West 480 552 40,000 240 Climbing Anchorage Center
06:58PM 57.2667 -149.3500 292° West 470 541 40,000  Level Anchorage Center
06:59PM 57.3000 -149.5833 285° West 470 541 40,000  Level Anchorage Center
07:00PM 57.3333 -149.8167 285° West 470 541 40,000  Level Anchorage Center
07:01PM 57.3833 -150.0500 292° West 460 529 40,000  Level Anchorage Center
07:02PM 57.4167 -150.2833 285° West 460 529 40,000  Level Anchorage Center
07:03PM 57.4500 -150.5167 285° West 460 529 40,000  Level Anchorage Center
07:04PM 57.5000 -150.7500 292° West 460 529 40,000  Level Anchorage Center
07:05PM 57.5333 -150.9833 285° West 470 541 40,000  Level Anchorage Center
07:06PM 57.5667 -151.2167 285° West 460 529 40,000  Level Anchorage Center
07:07PM 57.6000 -151.4500 285° West 450 518 40,000  Level Anchorage Center
07:08PM 57.6333 -151.6833 285° West 460 529 40,000  Level Anchorage Center
07:09PM 57.6667 -151.9167 285° West 460 529 40,000  Level Anchorage Center
07:10PM 57.7000 -152.1500 285° West 460 529 40,000  Level Anchorage Center
07:11PM 57.7333 -152.3833 285° West 460 529 40,000  Level Anchorage Center
07:12PM 57.7500 -152.6167 278° West 460 529 40,000  Level Anchorage Center
07:13PM 57.7833 -152.8667 284° West 460 529 40,000  Level Anchorage Center
07:14PM 57.8167 -153.1000 285° West 470 541 40,000  Level Anchorage Center
07:15PM 57.8500 -153.3333 285° West 460 529 40,000  Level Anchorage Center
07:16PM 57.8833 -153.5667 285° West 460 529 40,000  Level Anchorage Center
07:17PM 57.9167 -153.8000 285° West 450 518 40,000  Level Anchorage Center
07:18PM 57.9333 -154.0333 278° West 460 529 40,000  Level Anchorage Center
07:19PM 57.9667 -154.2667 285° West 450 518 40,000  Level Anchorage Center
07:20PM 58.0000 -154.5000 285° West 450 518 40,000  Level Anchorage Center
07:21PM 58.0167 -154.7333 278° West 460 529 40,000  Level Anchorage Center
07:22PM 58.0500 -155.0000 283° West 460 529 40,000  Level Anchorage Center
07:23PM 58.0833 -155.2333 285° West 460 529 40,000  Level Anchorage Center
07:24PM 58.1000 -155.4667 278° West 450 518 40,000  Level Anchorage Center
07:25PM 58.1333 -155.7167 284° West 460 529 40,000  Level Anchorage Center
07:26PM 58.1500 -155.9500 278° West 450 518 40,000  Level Anchorage Center
07:27PM 58.1833 -156.1667 286° West 440 506 40,000  Level Anchorage Center
07:28PM 58.2000 -156.4000 278° West 440 506 40,000  Level Anchorage Center
07:29PM 58.2333 -156.6500 284° West 450 518 40,000  Level Anchorage Center
07:30PM 58.2500 -156.8833 278° West 450 518 40,000  Level Anchorage Center
07:31PM 58.2833 -157.1500 283° West 460 529 40,000  Level Anchorage Center
07:32PM 58.3000 -157.3833 278° West 450 518 40,000  Level Anchorage Center
07:33PM 58.3167 -157.6167 278° West 450 518 40,000  Level Anchorage Center
07:34PM 58.3500 -157.8667 284° West 460 529 40,000  Level Anchorage Center
07:35PM 58.3667 -158.1000 278° West 450 518 40,000  Level Anchorage Center
07:36PM 58.3833 -158.3500 277° West 450 518 40,000  Level Anchorage Center
07:37PM 58.4167 -158.5833 285° West 460 529 40,000  Level Anchorage Center
07:38PM 58.4333 -158.8333 277° West 460 529 40,000  Level Anchorage Center
07:39PM 58.4500 -159.0667 278° West 450 518 40,000  Level Anchorage Center
07:40PM 58.4667 -159.3167 277° West 460 529 40,000  Level Anchorage Center
07:41PM 58.4833 -159.5500 278° West 460 529 40,000  Level Anchorage Center
07:42PM 58.5000 -159.8000 277° West 460 529 40,000  Level Anchorage Center
07:43PM 58.5167 -160.0500 277° West 460 529 40,000  Level Anchorage Center
07:44PM 58.5333 -160.3000 277° West 460 529 40,000  Level Anchorage Center
07:45PM 58.5500 -160.5500 277° West 470 541 40,000  Level Anchorage Center
07:46PM 58.5667 -160.7833 278° West 470 541 40,000  Level Anchorage Center
07:47PM 58.5833 -161.0333 277° West 460 529 40,000  Level Anchorage Center
07:48PM 58.6000 -161.2833 277° West 470 541 40,000  Level Anchorage Center
07:49PM 58.6167 -161.5333 277° West 460 529 40,000  Level Anchorage Center
07:50PM 58.6333 -161.7833 277° West 460 529 40,000  Level Anchorage Center
07:51PM 58.6500 -162.0333 277° West 480 552 40,000  Level Anchorage Center
07:52PM 58.6667 -162.2833 277° West 480 552 40,000  Level Anchorage Center
07:53PM 58.6667 -162.5500 270° West 480 552 40,000  Level Anchorage Center
07:54PM 58.6833 -162.8333 277° West 480 552 40,000  Level Anchorage Center
07:55PM 58.7000 -163.0833 277° West 480 552 40,000  Level Anchorage Center
07:56PM 58.7000 -163.3500 270° West 470 541 40,000  Level Anchorage Center
07:57PM 58.7167 -163.6000 277° West 470 541 40,000  Level Anchorage Center
07:58PM 58.7167 -163.8667 270° West 480 552 40,000  Level Anchorage Center
07:59PM 58.7333 -164.1167 277° West 480 552 40,000  Level Anchorage Center
08:00PM 58.7333 -164.3833 270° West 480 552 40,000  Level Anchorage Center
08:01PM 58.7500 -164.6333 277° West 480 552 40,000  Level Anchorage Center
08:02PM 58.7500 -164.9500 270° West 480 552 40,000  Level Anchorage Center
08:03PM 58.7667 -165.2167 277° West 480 552 40,000  Level Anchorage Center
08:04PM 58.7667 -165.4833 270° West 490 564 40,000  Level Anchorage Center
08:05PM 58.7667 -165.7500 270° West 490 564 40,000  Level Anchorage Center
08:06PM 58.7833 -166.0167 277° West 490 564 40,000  Level Anchorage Center
08:07PM 58.7833 -166.2667 270° West 490 564 40,000  Level Anchorage Center
08:08PM 58.7833 -166.5333 270° West 490 564 40,000  Level Anchorage Center
08:09PM 58.7833 -166.8000 270° West 500 575 40,000  Level Anchorage Center
08:10PM 58.7833 -167.0500 270° West 480 552 40,000  Level Anchorage Center
08:11PM 58.8000 -167.3167 277° West 480 552 40,000  Level Anchorage Center
08:12PM 58.7833 -167.5833 263° West 490 564 40,000  Level Anchorage Center
08:13PM 58.8000 -167.8500 277° West 490 564 40,000  Level Anchorage Center
08:14PM 58.8000 -168.1167 270° West 490 564 40,000  Level Anchorage Center
08:15PM 58.8000 -168.3833 270° West 490 564 40,000  Level Anchorage Center
08:16PM 58.8000 -168.6500 270° West 500 575 40,000  Level Anchorage Center
08:17PM 58.8000 -168.9167 270° West 490 564 40,000  Level Anchorage Center
08:18PM 58.8000 -169.1833 270° West 490 564 40,000  Level Anchorage Center
08:19PM 58.7833 -169.4500 263° West 500 575 40,000  Level Anchorage Center
08:20PM 58.7833 -169.7167 270° West 500 575 40,000  Level Anchorage Center
08:21PM 58.7833 -170.0000 270° West 500 575 40,000  Level Anchorage Center
08:22PM 58.7833 -170.2667 270° West 500 575 40,000  Level Anchorage Center
08:23PM 58.7667 -170.5500 264° West 510 587 40,000  Level Anchorage Center
08:24PM 58.7667 -170.8167 270° West 490 564 40,000  Level Anchorage Center
08:25PM 58.7667 -171.0833 270° West 490 564 40,000  Level Anchorage Center
08:26PM 58.7500 -171.3500 263° West 500 575 40,000  Level Anchorage Center
08:27PM 58.7500 -171.6167 270° West 490 564 40,000  Level Anchorage Center
08:28PM 58.7333 -171.8833 263° West 490 564 40,000  Level Anchorage Center
08:29PM 58.7167 -172.1500 263° West 490 564 40,000  Level Anchorage Center
08:30PM 58.7000 -172.4167 263° West 500 575 40,000  Level Anchorage Center
08:31PM 58.6833 -172.6833 263° West 500 575 40,000  Level Anchorage Center
08:32PM 58.6833 -172.9500 270° West 500 575 40,000  Level Anchorage Center
08:33PM 58.6667 -173.2167 263° West 500 575 40,000  Level Anchorage Center
08:34PM 58.6500 -173.4833 263° West 500 575 40,000  Level Anchorage Center
08:35PM 58.6333 -173.7667 264° West 510 587 40,000  Level Anchorage Center
08:36PM 58.6167 -173.9667 261° West 500 575 40,000  Level Anchorage Center
08:37PM 58.6000 -174.3000 265° West 500 575 40,000  Level Anchorage Center
08:38PM 58.5833 -174.5667 263° West 510 587 40,000  Level Anchorage Center
08:39PM 58.5500 -174.8333 257° West 500 575 40,000  Level Anchorage Center
08:40PM 58.5333 -175.1000 263° West 500 575 40,000  Level Anchorage Center
08:41PM 58.5167 -175.3667 263° West 500 575 40,000  Level Anchorage Center
08:42PM 58.5000 -175.6333 263° West 500 575 40,000  Level Anchorage Center
08:43PM 58.4833 -175.9000 263° West 500 575 40,000  Level Anchorage Center
08:44PM 58.4500 -176.1667 257° West 500 575 40,000  Level Anchorage Center
08:45PM 58.4333 -176.4333 263° West 500 575 40,000  Level Anchorage Center
08:46PM 58.4167 -176.6833 263° West 500 575 40,000  Level Anchorage Center
08:47PM 58.3833 -176.9500 257° West 490 564 40,000  Level Anchorage Center
08:48PM 58.3500 -177.2000 256° West 490 564 40,000  Level Anchorage Center
08:51PM 58.2834 -177.4671 245° Southwest  Level FlightAware Approximate
08:52PM 58.1500 -178.0500 244° Southwest 502 578 40,000  Level Anchorage Center
08:58PM 57.7772 -179.4466 243° Southwest 502 578 40,000  Level FlightAware Transoceanic
08:59PM 57.7136 -179.6766 243° Southwest 502 578 40,000  Level FlightAware Transoceanic
09:00PM 57.6496 -179.9057 242° Southwest 502 578 40,000  Level FlightAware Transoceanic
09:01PM 57.5852 179.8660 242° Southwest 502 578 40,000 480 Level FlightAware Transoceanic
09:01PM 57.5333 179.7167 242° Southwest 510 587 41,000  Climbing Anchorage Center
09:02PM 57.5204 179.6384 242° Southwest 502 578 40,000 -960 Descending FlightAware Transoceanic
09:03PM 57.4551 179.4117 242° Southwest 502 578 40,000  Level FlightAware Transoceanic
09:04PM 57.3895 179.1858 242° Southwest 502 578 40,000  Level FlightAware Transoceanic
09:05PM 57.3234 178.9608 241° Southwest 502 578 40,000  Level FlightAware Transoceanic
09:06PM 57.2569 178.7365 241° Southwest 502 578 40,000  Level FlightAware Transoceanic
09:07PM 57.1901 178.5130 241° Southwest 502 578 40,000 480 Level FlightAware Transoceanic
09:08PM 57.1343 178.3544 241° Southwest 510 587 41,000 480 Climbing FlightAware Transoceanic
09:09PM 57.0664 178.1303 241° Southwest 510 587 41,000  Level FlightAware Transoceanic
09:10PM 56.9981 177.9069 241° Southwest 510 587 41,000  Level FlightAware Transoceanic
09:11PM 56.9294 177.6844 240° Southwest 510 587 41,000  Level FlightAware Transoceanic
09:11PM 56.8833 177.5167 240° Southwest 515 593 41,000  Level Anchorage Center
09:12PM 56.8603 177.4627 240° Southwest 510 587 41,000  Level FlightAware Transoceanic
09:12PM 56.8333 177.3500 240° Southwest 511 588 41,000  Level Anchorage Center
09:13PM 56.7908 177.2418 240° Southwest 510 587 41,000  Level FlightAware Transoceanic
09:14PM 56.7209 177.0218 240° Southwest 510 587 41,000  Level FlightAware Transoceanic
09:15PM 56.6506 176.8025 240° Southwest 510 587 41,000  Level FlightAware Transoceanic
09:16PM 56.5800 176.5841 239° Southwest 510 587 41,000  Level FlightAware Transoceanic
09:17PM 56.4718 176.2387 239° Southwest 515 593 41,000  Level FlightAware Transoceanic
09:18PM 56.3989 176.0139 239° Southwest 511 588 41,000  Level FlightAware Transoceanic
09:19PM 56.3251 175.7942 239° Southwest 511 588 41,000  Level FlightAware Transoceanic
09:19PM 56.3000 175.7500 238° Southwest 520 598 41,000  Level Anchorage Center
09:20PM 56.2510 175.5753 239° Southwest 511 588 41,000  Level FlightAware Transoceanic
09:20PM 56.2333 175.5333 241° Southwest 550 633 41,000  Level Anchorage Center
09:21PM 56.1764 175.3573 238° Southwest 511 588 41,000  Level FlightAware Transoceanic
09:21PM 56.1500 175.3167 235° Southwest 510 587 41,000  Level Anchorage Center
09:22PM 56.1015 175.1401 238° Southwest 511 588 41,000  Level FlightAware Transoceanic
09:22PM 56.0667 175.0833 237° Southwest 510 587 41,000  Level Anchorage Center
09:23PM 56.0262 174.9238 238° Southwest 511 588 41,000  Level FlightAware Transoceanic
09:23PM 56.0000 174.8833 239° Southwest 510 587 41,000  Level Anchorage Center
09:24PM 55.9505 174.7084 238° Southwest 511 588 41,000  Level FlightAware Transoceanic
09:24PM 55.9167 174.6500 238° Southwest 510 587 41,000  Level Anchorage Center
09:25PM 55.8500 174.4667 237° Southwest 510 587 41,000  Level Anchorage Center
09:26PM 55.7667 174.2333 238° Southwest 510 587 41,000  Level Anchorage Center
09:27PM 55.7000 174.0500 237° Southwest 510 587 41,000  Level Anchorage Center
09:28PM 55.6167 173.8167 238° Southwest 510 587 41,000  Level Anchorage Center
09:29PM 55.5500 173.6333 237° Southwest 510 587 41,000  Level Anchorage Center
09:30PM 55.4667 173.4000 238° Southwest 510 587 41,000  Level Anchorage Center
09:31PM 55.3833 173.1667 238° Southwest 510 587 41,000  Level Anchorage Center
09:32PM 55.3167 173.0000 235° Southwest 510 587 41,000  Level Anchorage Center
09:33PM 55.2333 172.7667 238° Southwest 510 587 41,000  Level Anchorage Center
09:34PM 55.1667 172.5833 238° Southwest 500 575 41,000  Level Anchorage Center
09:35PM 55.0667 172.3667 231° Southwest 510 587 41,000  Level Anchorage Center
09:36PM 55.0000 172.1833 238° Southwest 510 587 41,000  Level Anchorage Center
09:37PM 54.9167 171.9500 238° Southwest 520 598 41,000  Level Anchorage Center
09:38PM 54.8167 171.7333 231° Southwest 520 598 41,000  Level Anchorage Center
09:39PM 54.7500 171.5667 235° Southwest 510 587 41,000  Level Anchorage Center
09:40PM 54.6667 171.3500 236° Southwest 510 587 41,000  Level Anchorage Center
09:41PM 54.5833 171.1833 229° Southwest 510 587 41,000  Level Anchorage Center
09:42PM 54.5000 170.9500 238° Southwest 520 598 41,000  Level Anchorage Center
09:43PM 54.4167 170.7833 229° Southwest 510 587 41,000  Level Anchorage Center
09:44PM 54.3500 170.6000 238° Southwest 480 552 41,000  Level Anchorage Center
09:45PM 54.2667 170.4167 232° Southwest 520 598 41,000  Level Anchorage Center
09:46PM 54.1667 170.2000 232° Southwest 500 575 41,000  Level Anchorage Center
09:47PM 54.0833 170.0000 235° Southwest 510 587 41,000  Level Anchorage Center
09:48PM 54.0167 169.8333 236° Southwest 500 575 41,000  Level Anchorage Center
09:49PM 53.9167 169.6333 230° Southwest 490 564 41,000  Level Anchorage Center
09:50PM 53.8500 169.4667 236° Southwest 490 564 41,000  Level Anchorage Center
09:51PM 53.7500 169.2667 230° Southwest 500 575 41,000  Level Anchorage Center
09:53PM 53.6167 168.8667 241° Southwest 510 587 41,000  Level Anchorage Center
09:54PM 53.5333 168.6500 237° Southwest 510 587 41,000  Level Anchorage Center
09:55PM 53.4833 168.4833 243° Southwest 480 552 41,000  Level Anchorage Center
09:58PM 53.3913 168.2083 240° Southwest  Level FlightAware Approximate
09:59PM 53.2167 167.7000 239° Southwest 482 555 41,000  Level Anchorage Center
10:05PM 52.8127 166.5852 238° Southwest 482 555 41,000  Level FlightAware Transoceanic
10:06PM 52.7444 166.4014 238° Southwest 482 555 41,000  Level FlightAware Transoceanic
10:07PM 52.6758 166.2182 238° Southwest 482 555 41,000  Level FlightAware Transoceanic
10:08PM 52.6069 166.0356 238° Southwest 482 555 41,000  Level FlightAware Transoceanic
10:09PM 52.5377 165.8535 238° Southwest 482 555 41,000  Level FlightAware Transoceanic
10:09PM 52.5500 165.8833 238° Southwest 480 552 41,000  Level Anchorage Center
10:10PM 52.4683 165.6720 238° Southwest 482 555 41,000  Level FlightAware Transoceanic
10:11PM 52.3985 165.4911 238° Southwest 482 555 41,000  Level FlightAware Transoceanic
10:12PM 52.3285 165.3108 237° Southwest 482 555 41,000  Level FlightAware Transoceanic
10:13PM 52.2582 165.1310 237° Southwest 482 555 41,000  Level FlightAware Transoceanic
10:14PM 52.1877 164.9518 237° Southwest 482 555 41,000  Level FlightAware Transoceanic
10:15PM 52.1384 164.8254 237° Southwest 480 552 41,000  Level FlightAware Transoceanic
10:16PM 52.0689 164.6510 237° Southwest 480 552 41,000  Level FlightAware Transoceanic
10:17PM 51.9991 164.4771 237° Southwest 480 552 41,000  Level FlightAware Transoceanic
10:18PM 51.9291 164.3038 237° Southwest 480 552 41,000  Level FlightAware Transoceanic
10:18PM 51.8667 164.1500 237° Southwest 479 551 41,000  Level Anchorage Center
10:19PM 51.8588 164.1310 237° Southwest 480 552 41,000  Level FlightAware Transoceanic
10:20PM 51.7883 163.9588 236° Southwest 480 552 41,000  Level FlightAware Transoceanic
10:21PM 51.7175 163.7871 236° Southwest 480 552 41,000  Level FlightAware Transoceanic
10:21PM 51.6500 163.6500 236° Southwest 472 543 41,000  Level Anchorage Center
10:22PM 51.6465 163.6159 236° Southwest 480 552 41,000  Level FlightAware Transoceanic
10:23PM 51.5752 163.4453 236° Southwest 480 552 41,000  Level FlightAware Transoceanic
10:24PM 51.5037 163.2752 236° Southwest 480 552 41,000  Level FlightAware Transoceanic
10:25PM 51.4383 163.1204 236° Southwest 479 551 41,000  Level FlightAware Transoceanic
10:26PM 51.3660 162.9507 236° Southwest 479 551 41,000  Level FlightAware Transoceanic
10:27PM 51.2181 162.6260 236° Southwest 472 543 41,000  Level FlightAware Transoceanic
10:28PM 51.1452 162.4572 235° Southwest 472 543 41,000  Level FlightAware Transoceanic
10:28PM 51.1667 162.4833 235° Southwest 473 544 41,000  Level Anchorage Center
10:29PM 51.0721 162.2890 235° Southwest 472 543 41,000  Level FlightAware Transoceanic
10:30PM 50.9988 162.1213 235° Southwest 472 543 41,000  Level FlightAware Transoceanic
10:31PM 50.9252 161.9541 235° Southwest 472 543 41,000  Level FlightAware Transoceanic
10:32PM 50.8514 161.7874 235° Southwest 472 543 41,000  Level FlightAware Transoceanic
10:33PM 50.7774 161.6213 235° Southwest 472 543 41,000  Level FlightAware Transoceanic
10:34PM 50.7179 161.4730 234° Southwest 473 544 41,000  Level FlightAware Transoceanic
10:35PM 50.6423 161.3065 234° Southwest 473 544 41,000  Level FlightAware Transoceanic
10:36PM 50.5664 161.1406 234° Southwest 473 544 41,000  Level FlightAware Transoceanic
10:37PM 50.4903 160.9752 234° Southwest 473 544 41,000  Level FlightAware Transoceanic
10:37PM 50.4333 160.8667 234° Southwest 469 540 41,000  Level Anchorage Center
10:38PM 50.4140 160.8103 234° Southwest 473 544 41,000  Level FlightAware Transoceanic
10:39PM 50.3374 160.6459 234° Southwest 473 544 41,000  Level FlightAware Transoceanic
10:40PM 50.2606 160.4821 234° Southwest 473 544 41,000  Level FlightAware Transoceanic
10:41PM 50.1836 160.3188 234° Southwest 473 544 41,000  Level FlightAware Transoceanic
10:41PM 50.2000 160.3833 234° Southwest 462 532 41,000  Level Anchorage Center
10:42PM 50.1063 160.1560 233° Southwest 473 544 41,000  Level FlightAware Transoceanic
10:43PM 50.0289 159.9938 233° Southwest 473 544 41,000  Level FlightAware Transoceanic
10:44PM 49.9577 159.8505 233° Southwest 469 540 41,000  Level FlightAware Transoceanic
10:45PM 49.8776 159.6831 233° Southwest 469 540 41,000  Level FlightAware Transoceanic
10:46PM 49.7973 159.5163 233° Southwest 469 540 41,000  Level FlightAware Transoceanic
10:47PM 49.7167 159.3500 233° Southwest 462 532 41,000  Level FlightAware Transoceanic
10:48PM 49.6394 159.1923 233° Southwest 462 532 41,000  Level FlightAware Transoceanic
10:49PM 49.5619 159.0351 233° Southwest 462 532 41,000  Level FlightAware Transoceanic
10:50PM 49.4843 158.8784 233° Southwest 462 532 41,000  Level FlightAware Transoceanic
10:51PM 49.4064 158.7222 232° Southwest 462 532 41,000  Level FlightAware Transoceanic
10:52PM 49.3283 158.5665 232° Southwest 462 532 41,000  Level FlightAware Transoceanic
10:53PM 49.2500 158.4113 232° Southwest 462 532 41,000  Level FlightAware Transoceanic
10:54PM 49.1714 158.2565 232° Southwest 462 532 41,000  Level FlightAware Transoceanic
10:55PM 49.0927 158.1023 232° Southwest 462 532 41,000  Level FlightAware Transoceanic
10:56PM 49.0138 157.9485 232° Southwest 462 532 41,000  Level FlightAware Transoceanic
10:57PM 48.9347 157.7953 232° Southwest 462 532 41,000  Level FlightAware Transoceanic
10:58PM 48.8553 157.6425 232° Southwest 462 532 41,000  Level FlightAware Transoceanic
10:59PM 48.7758 157.4902 232° Southwest 462 532 41,000  Level FlightAware Transoceanic
11:00PM 48.6960 157.3384 231° Southwest 462 532 41,000  Level FlightAware Transoceanic
11:01PM 48.6161 157.1871 231° Southwest 462 532 41,000  Level FlightAware Transoceanic
11:02PM 48.5360 157.0362 231° Southwest 462 532 41,000  Level FlightAware Transoceanic
11:03PM 48.4557 156.8859 231° Southwest 462 532 41,000  Level FlightAware Transoceanic
11:04PM 48.3751 156.7360 231° Southwest 462 532 41,000  Level FlightAware Transoceanic
11:05PM 48.2944 156.5865 231° Southwest 462 532 41,000  Level FlightAware Transoceanic
11:06PM 48.2135 156.4376 231° Southwest 462 532 41,000  Level FlightAware Transoceanic
11:07PM 48.1324 156.2891 231° Southwest 462 532 41,000  Level FlightAware Transoceanic
11:08PM 48.0511 156.1411 231° Southwest 462 532 41,000  Level FlightAware Transoceanic
11:09PM 47.9696 155.9936 230° Southwest 462 532 41,000  Level FlightAware Transoceanic
11:10PM 47.8880 155.8465 230° Southwest 462 532 41,000  Level FlightAware Transoceanic
11:11PM 47.8061 155.6999 230° Southwest 462 532 41,000  Level FlightAware Transoceanic
11:12PM 47.7240 155.5537 230° Southwest 462 532 41,000  Level FlightAware Transoceanic
11:13PM 47.6418 155.4080 230° Southwest 462 532 41,000  Level FlightAware Transoceanic
11:14PM 47.5594 155.2628 230° Southwest 462 532 41,000  Level FlightAware Transoceanic
11:15PM 47.4768 155.1180 230° Southwest 462 532 41,000  Level FlightAware Transoceanic
11:16PM 47.3940 154.9737 230° Southwest 462 532 41,000  Level FlightAware Transoceanic
11:17PM 47.3111 154.8298 230° Southwest 462 532 41,000  Level FlightAware Transoceanic
11:18PM 47.2279 154.6864 229° Southwest 462 532 41,000  Level FlightAware Transoceanic
11:19PM 47.1446 154.5435 229° Southwest 462 532 41,000  Level FlightAware Transoceanic
11:20PM 47.0611 154.4009 229° Southwest 462 532 41,000  Level FlightAware Transoceanic
11:21PM 46.9775 154.2589 229° Southwest 462 532 41,000  Level FlightAware Transoceanic
11:22PM 46.8936 154.1172 229° Southwest 462 532 41,000  Level FlightAware Transoceanic
11:23PM 46.8096 153.9760 229° Southwest 462 532 41,000  Level FlightAware Transoceanic
11:24PM 46.7254 153.8353 229° Southwest 462 532 41,000  Level FlightAware Transoceanic
11:25PM 46.6410 153.6950 229° Southwest 462 532 41,000  Level FlightAware Transoceanic
11:26PM 46.5565 153.5551 229° Southwest 462 532 41,000  Level FlightAware Transoceanic
11:27PM 46.4718 153.4157 229° Southwest 462 532 41,000  Level FlightAware Transoceanic
11:28PM 46.3869 153.2767 228° Southwest 462 532 41,000  Level FlightAware Transoceanic
11:29PM 46.3019 153.1381 228° Southwest 462 532 41,000  Level FlightAware Transoceanic
11:30PM 46.2151 152.9997 228° Southwest  Level FlightAware Approximate
11:31PM 46.1281 152.8616 228° Southwest  Level FlightAware Approximate
11:32PM 46.0409 152.7240 228° Southwest  Level FlightAware Approximate
11:33PM 45.9536 152.5869 228° Southwest  Level FlightAware Approximate
11:34PM 45.8661 152.4502 227° Southwest  Level FlightAware Approximate
11:35PM 45.7785 152.3139 227° Southwest  Level FlightAware Approximate
11:36PM 45.6907 152.1780 227° Southwest  Level FlightAware Approximate
11:37PM 45.6027 152.0425 227° Southwest  Level FlightAware Approximate
11:38PM 45.6021 152.0408 227° Southwest  Level FlightAware Approximate
11:39PM 45.5143 151.9054 227° Southwest  Level FlightAware Approximate
11:40PM 45.4263 151.7704 227° Southwest  Level FlightAware Approximate
11:41PM 45.3382 151.6358 227° Southwest  Level FlightAware Approximate
11:42PM 45.2499 151.5017 227° Southwest  Level FlightAware Approximate
11:43PM 45.1614 151.3679 227° Southwest  Level FlightAware Approximate
11:44PM 45.0728 151.2346 227° Southwest  Level FlightAware Approximate
11:45PM 44.9841 151.1017 227° Southwest  Level FlightAware Approximate
11:46PM 44.8951 150.9692 227° Southwest  Level FlightAware Approximate
11:47PM 44.8061 150.8371 226° Southwest  Level FlightAware Approximate
11:48PM 44.7168 150.7054 226° Southwest  Level FlightAware Approximate
11:49PM 44.6275 150.5741 226° Southwest  Level FlightAware Approximate
11:50PM 44.5379 150.4433 226° Southwest  Level FlightAware Approximate
11:51PM 44.4483 150.3128 226° Southwest  Level FlightAware Approximate
11:52PM 44.3585 150.1827 226° Southwest  Level FlightAware Approximate
11:53PM 44.2685 150.0531 226° Southwest  Level FlightAware Approximate
11:54PM 44.1784 149.9238 226° Southwest  Level FlightAware Approximate
11:55PM 44.0881 149.7949 226° Southwest  Level FlightAware Approximate
11:56PM 43.9977 149.6664 226° Southwest  Level FlightAware Approximate
11:57PM 43.9072 149.5383 226° Southwest  Level FlightAware Approximate
11:58PM 43.8165 149.4106 225° Southwest  Level FlightAware Approximate
11:59PM 43.7257 149.2833 225° Southwest  Level FlightAware Approximate
12:00AM 43.6347 149.1563 225° Southwest  Level FlightAware Approximate
12:01AM 43.5436 149.0298 225° Southwest  Level FlightAware Approximate
12:01AM 43.4240 148.8620 225° Southwest 459 528 41,000  Level FlightAware
12:01AM 43.3630 148.7780 225° Southwest 460 529 41,000  Level FlightAware
12:02AM 43.4523 148.9036 225° Southwest  Level FlightAware Approximate
12:02AM 43.2950 148.6850 225° Southwest 461 531 41,000  Level FlightAware
12:03AM 43.2420 148.6130 225° Southwest 461 531 41,000  Level FlightAware
12:03AM 43.1740 148.5210 225° Southwest 461 531 41,000  Level FlightAware
12:04AM 43.1110 148.4350 225° Southwest 461 531 41,000  Level FlightAware
12:05AM 43.0500 148.3520 225° Southwest 461 531 41,000  Level FlightAware
12:06AM 42.9730 148.2480 225° Southwest 463 533 41,000  Level FlightAware
12:06AM 42.9110 148.1650 224° Southwest 463 533 41,000  Level FlightAware
12:07AM 42.8490 148.0830 224° Southwest 470 541 41,000  Level FlightAware
12:08AM 42.7820 147.9930 225° Southwest 469 540 41,000  Level FlightAware
12:08AM 42.7180 147.9070 225° Southwest 469 540 41,000  Level FlightAware
12:09AM 42.6560 147.8250 224° Southwest 470 541 41,000  Level FlightAware
12:10AM 42.5940 147.7430 224° Southwest 469 540 41,000  Level FlightAware
12:10AM 42.5240 147.6500 224° Southwest 468 539 41,000  Level FlightAware
12:11AM 42.4620 147.5690 224° Southwest 467 537 41,000  Level FlightAware
12:12AM 42.4000 147.4880 224° Southwest 467 537 41,000  Level FlightAware
12:13AM 42.3310 147.3970 224° Southwest 459 528 41,000  Level FlightAware
12:13AM 42.2690 147.3160 224° Southwest 458 527 41,000  Level FlightAware
12:14AM 42.2070 147.2350 224° Southwest 458 527 41,000  Level FlightAware
12:15AM 42.1150 147.1150 224° Southwest 456 525 41,000  Level FlightAware
12:16AM 42.0530 147.0360 223° Southwest 457 526 41,000  Level FlightAware
12:16AM 41.9870 146.9500 224° Southwest 456 525 41,000  Level FlightAware
12:17AM 41.9220 146.8670 224° Southwest 456 525 41,000  Level FlightAware
12:18AM 41.8610 146.7880 224° Southwest 456 525 41,000  Level FlightAware
12:18AM 41.8000 146.7100 224° Southwest 464 534 41,000  Level FlightAware
12:19AM 41.7370 146.6300 223° Southwest 464 534 41,000  Level FlightAware
12:20AM 41.6590 146.5300 224° Southwest 465 535 41,000  Level FlightAware
12:20AM 41.5970 146.4510 224° Southwest 464 534 41,000  Level FlightAware
12:21AM 41.5270 146.3630 223° Southwest 464 534 41,000  Level FlightAware
12:22AM 41.4640 146.2830 224° Southwest 465 535 41,000  Level FlightAware
12:23AM 41.4020 146.2050 223° Southwest 466 536 41,000  Level FlightAware
12:23AM 41.3310 146.1160 223° Southwest 466 536 41,000  Level FlightAware
12:24AM 41.2680 146.0380 223° Southwest 464 534 41,000  Level FlightAware
12:25AM 41.1820 145.9300 223° Southwest 462 532 41,000  Level FlightAware
12:26AM 41.1200 145.8530 223° Southwest 462 532 41,000  Level FlightAware
12:26AM 41.0520 145.7680 223° Southwest 461 531 41,000  Level FlightAware
12:27AM 40.9890 145.6900 223° Southwest 461 531 41,000  Level FlightAware
12:28AM 40.9180 145.6030 223° Southwest 459 528 41,000  Level FlightAware
12:28AM 40.8560 145.5260 223° Southwest 459 528 41,000  Level FlightAware
12:29AM 40.7860 145.4410 223° Southwest 459 528 41,000  Level FlightAware
12:30AM 40.7010 145.3380 223° Southwest 458 527 41,000  Level FlightAware
12:31AM 40.6410 145.2640 223° Southwest 457 526 41,000  Level FlightAware
12:31AM 40.5700 145.1780 223° Southwest 457 526 41,000  Level FlightAware
12:32AM 40.5200 145.1180 222° Southwest 457 526 41,000  Level FlightAware
12:33AM 40.4550 145.0400 222° Southwest 457 526 41,000  Level FlightAware
12:33AM 40.4060 144.9840 221° Southwest 457 526 41,000  Level FlightAware
12:34AM 40.3420 144.9080 222° Southwest 457 526 41,000  Level FlightAware
12:35AM 40.2900 144.8460 222° Southwest 457 526 41,000  Level FlightAware
12:36AM 40.2420 144.7900 222° Southwest 457 526 41,000  Level FlightAware
12:36AM 40.1780 144.7140 222° Southwest 457 526 41,000  Level FlightAware
12:37AM 40.0980 144.6200 222° Southwest 457 526 41,000  Level FlightAware
12:38AM 40.0500 144.5630 222° Southwest 457 526 41,000  Level FlightAware
12:39AM 39.9860 144.4880 222° Southwest 457 526 41,000  Level FlightAware
12:39AM 39.9380 144.4310 222° Southwest 457 526 41,000  Level FlightAware
12:40AM 39.8680 144.3500 222° Southwest 457 526 41,000  Level FlightAware
12:41AM 39.8040 144.2750 222° Southwest 457 526 41,000  Level FlightAware
12:44AM 39.5639 143.9858 223° Southwest  Level FlightAware Approximate
12:45AM 39.4689 143.8722 223° Southwest  Level FlightAware Approximate
12:45AM 39.2700 143.7040 223° Southwest 454 522 41,000  Level FlightAware
12:46AM 39.2080 143.6700 203° Southwest 454 522 41,000  Level FlightAware
12:48AM 38.9360 143.5200 203° Southwest 41,000  Level FlightAware
12:51AM 38.6850 143.2589 219° Southwest  Level Estimated
12:51AM 38.5350 143.3020 219° Southwest 454 522 41,000  Level FlightAware
12:52AM 38.5844 143.1550 219° Southwest  Level Estimated
12:52AM 38.4450 143.2530 203° Southwest 454 522 41,000  Level FlightAware
12:53AM 38.3640 143.2100 203° Southwest 454 522 41,000  Level FlightAware
12:54AM 38.2640 143.1560 203° Southwest 451 519 41,000  Level FlightAware
12:55AM 38.1660 143.1030 203° Southwest 451 519 41,000  Level FlightAware
12:56AM 38.0510 143.0420 203° Southwest 41,000  Level FlightAware
12:57AM 37.9160 142.9700 203° Southwest 451 519 41,000  Level FlightAware
12:58AM 37.8380 142.9290 203° Southwest 449 517 41,000  Level FlightAware
12:58AM 37.7380 142.8770 202° Southwest 448 516 41,000  Level FlightAware
12:59AM 37.6620 142.8370 203° Southwest 446 513 41,000  Level FlightAware
01:00AM 37.5930 142.8000 203° Southwest 445 512 41,000  Level FlightAware
01:01AM 37.4760 142.7390 202° Southwest 444 511 41,000  Level FlightAware
01:01AM 37.3960 142.6970 203° Southwest 443 510 41,000  Level FlightAware
01:02AM 37.3110 142.6520 203° Southwest 443 510 41,000  Level FlightAware
01:03AM 37.2350 142.6130 202° Southwest 442 509 41,000  Level FlightAware
01:03AM 37.1740 142.5810 203° Southwest 441 507 41,000  Level FlightAware
01:04AM 37.0770 142.5310 202° Southwest 439 505 41,000  Level FlightAware
01:05AM 37.0050 142.4940 202° Southwest 438 504 41,000  Level FlightAware
01:05AM 36.9250 142.4530 202° Southwest 436 502 41,000 -120 Level FlightAware
01:06AM 36.8470 142.4130 202° Southwest 438 504 40,900 -960 Descending FlightAware
01:07AM 36.7700 142.3730 203° Southwest 443 510 39,700 -1,980 Descending FlightAware
01:08AM 36.6720 142.3230 202° Southwest 438 504 37,900 -2,160 Descending FlightAware
01:08AM 36.5980 142.2850 202° Southwest 434 499 36,400 -2,400 Descending FlightAware
01:09AM 36.5130 142.2410 203° Southwest 432 497 34,300 -2,520 Descending FlightAware
01:10AM 36.3880 142.1780 202° Southwest 421 484 31,500 -2,280 Descending FlightAware
01:11AM 36.3050 142.1360 202° Southwest 404 465 30,200 -1,680 Descending FlightAware
01:12AM 36.2350 142.1000 203° Southwest 403 464 29,200 -1,800 Descending FlightAware
01:12AM 36.1640 142.0650 202° Southwest 403 464 27,800 -2,220 Descending FlightAware
01:13AM 36.0920 142.0280 203° Southwest 415 478 26,300 -2,220 Descending FlightAware
01:14AM 36.0140 141.9880 203° Southwest 421 484 24,700 -2,220 Descending FlightAware
01:14AM 35.9480 141.9560 201° Southwest 418 481 23,300 -2,400 Descending FlightAware
01:15AM 35.8600 141.9120 202° Southwest 419 482 21,400 -2,280 Descending FlightAware
01:16AM 35.7960 141.8810 201° Southwest 414 476 20,000 -2,100 Descending FlightAware
01:17AM 35.6750 141.7870 212° Southwest 379 436 17,500 -1,680 Descending FlightAware
01:18AM 35.6670 141.7100 263° West 364 419 16,900 -960 Descending FlightAware
01:19AM 35.6860 141.6210 285° West 359 413 16,200 -960 Descending FlightAware
01:19AM 35.7040 141.5400 285° West 354 407 15,600 -900 Descending FlightAware
01:20AM 35.7260 141.4410 285° West 347 399 14,800 -1,080 Descending FlightAware
01:21AM 35.7430 141.3630 285° West 345 397 14,000 -1,020 Descending FlightAware
01:22AM 35.7610 141.2780 285° West 340 391 13,300 -1,260 Descending FlightAware
01:22AM 35.7750 141.2060 283° West 339 390 12,300 -1,680 Descending FlightAware
01:23AM 35.7890 141.1280 282° West 329 379 11,200 -1,020 Descending FlightAware
01:24AM 35.8040 141.0410 282° West 293 337 10,800 -480 Descending FlightAware
01:24AM 35.8140 140.9820 282° West 271 312 10,500 -540 Descending FlightAware
01:25AM 35.8230 140.9230 281° West 261 300 10,000 -1,080 Descending FlightAware
01:26AM 35.8340 140.8580 282° West 257 296 9,100 -1,620 Descending FlightAware
01:26AM 35.8420 140.8140 283° West 253 291 8,600 -1,140 Descending FlightAware
01:27AM 35.8520 140.7810 291° West 250 288 8,100 -1,320 Descending FlightAware
01:27AM 35.8650 140.7410 292° West 254 292 7,400 -1,200 Descending FlightAware
01:27AM 35.8720 140.7210 293° West 252 290 7,200 -1,080 Descending FlightAware
01:28AM 35.8830 140.6880 292° West 251 289 6,700 -1,080 Descending FlightAware
01:28AM 35.8930 140.6580 292° West 250 288 6,300 -540 Descending FlightAware
01:29AM 35.9100 140.6110 294° West 254 292 6,200 -120 Descending FlightAware
01:29AM 35.9190 140.5860 294° West 253 291 6,200  Level FlightAware
01:29AM 35.9290 140.5560 292° West 255 293 6,200  Level FlightAware
01:30AM 35.9460 140.5050 292° West 249 287 6,200  Level FlightAware
01:30AM 35.9480 140.4860 277° West 239 275 6,200 -240 Level FlightAware
01:31AM 35.9490 140.4690 274° West 234 269 6,100 -480 Descending FlightAware
01:31AM 35.9500 140.4380 272° West 221 254 5,900 -780 Descending FlightAware
01:31AM 35.9510 140.4170 273° West 215 247 5,600 -1,140 Descending FlightAware
01:32AM 35.9530 140.3790 274° West 208 239 5,100 -1,380 Descending FlightAware
01:32AM 35.9560 140.3470 277° West 212 244 4,400 -1,440 Descending FlightAware
01:32AM 35.9560 140.3340 270° West 213 245 4,200 -1,140 Descending FlightAware
01:33AM 35.9360 140.2770 247° West 171 197 3,100 -960 Descending FlightAware
01:34AM 35.9270 140.2750 190° South 161 185 3,100 -240 Level FlightAware
01:34AM 35.9100 140.2740 183° South 160 184 3,000 -180 Descending FlightAware
01:34AM 35.8920 140.2830 158° South 156 180 3,000 -360 Level FlightAware
01:35AM 35.8850 140.2890 145° Southeast 158 182 2,800 -960 Descending FlightAware
01:35AM 35.8650 140.3030 150° Southeast 171 197 2,400 -900 Descending FlightAware
01:36AM 35.8450 140.3170 150° Southeast 167 192 1,900 -900 Descending FlightAware
01:36AM 35.8290 140.3290 149° Southeast 143 165 1,600 -720 Descending FlightAware
01:36AM 35.8140 140.3390 152° Southeast 128 147 1,300 -660 Descending FlightAware
01:37AM 35.8000 140.3490 150° Southeast 128 147 1,000 -720 Descending FlightAware
01:40AM 35.7647 140.3864 253° West  Level Estimated
01:41AM 35.7647 140.3864 253° West  Level Estimated
01:42AM 35.7647 140.3864 253° West  Level Estimated
01:43AM 35.7647 140.3864 253° West  Level Estimated
01:44AM 35.7647 140.3864 253° West  Level Estimated
01:45AM 35.7647 140.3864 253° West  Level Estimated
01:46AM 35.7647 140.3864 253° West  Level Estimated
01:47AM 35.7647 140.3864 253° West  Level Estimated
01:48AM 35.7647 140.3864 253° West  Level Estimated
01:49AM 35.7647 140.3864 253° West  Level Estimated
01:50AM 35.7647 140.3864 253° West  Level Estimated
01:51AM 35.7647 140.3864 253° West  Level Estimated
01:52AM 35.7647 140.3864 253° West  Level Estimated
01:53AM 35.7647 140.3864 253° West  Level Estimated
01:54AM 35.7647 140.3864 253° West  Level Estimated